sensor_id;sensor_type;location;lat;lon;timestamp;pressure;altitude;pressure_sealevel;temperature;humidity
38852;BME280;24605;50.092;9.182;2023-07-20T00:00:44;156658.75;;;18.21;71.61
38852;BME280;24605;50.092;9.182;2023-07-20T00:03:11;156688.88;;;18.33;71.31
38852;BME280;24605;50.092;9.182;2023-07-20T00:05:42;156678.44;;;18.29;71.41
38852;BME280;24605;50.092;9.182;2023-07-20T00:08:10;156648.25;;;18.17;72.42
38852;BME280;24605;50.092;9.182;2023-07-20T00:10:36;156664.00;;;18.23;71.96
38852;BME280;24605;50.092;9.182;2023-07-20T00:13:03;156633.88;;;18.11;72.73
38852;BME280;24605;50.092;9.182;2023-07-20T00:15:29;156637.78;;;18.13;72.80
38852;BME280;24605;50.092;9.182;2023-07-20T00:17:56;156598.50;;;17.97;73.27
38852;BME280;24605;50.092;9.182;2023-07-20T00:20:24;156594.53;;;17.96;73.70
38852;BME280;24605;50.092;9.182;2023-07-20T00:22:50;156627.28;;;18.09;73.42
38852;BME280;24605;50.092;9.182;2023-07-20T00:25:18;156618.13;;;18.05;73.57
38852;BME280;24605;50.092;9.182;2023-07-20T00:27:45;156599.78;;;17.98;73.91
38852;BME280;24605;50.092;9.182;2023-07-20T00:30:12;156561.75;;;17.83;74.79
38852;BME280;24605;50.092;9.182;2023-07-20T00:32:39;156540.78;;;17.75;75.29
38852;BME280;24605;50.092;9.182;2023-07-20T00:35:06;156527.72;;;17.69;75.80
38852;BME280;24605;50.092;9.182;2023-07-20T00:37:32;156513.31;;;17.64;76.23
38852;BME280;24605;50.092;9.182;2023-07-20T00:39:59;156530.34;;;17.70;75.94
38852;BME280;24605;50.092;9.182;2023-07-20T00:42:26;156462.25;;;17.44;75.23
38852;BME280;24605;50.092;9.182;2023-07-20T00:44:53;156552.59;;;17.79;75.47
38852;BME280;24605;50.092;9.182;2023-07-20T00:47:19;156497.59;;;17.58;76.51
38852;BME280;24605;50.092;9.182;2023-07-20T00:49:46;156476.66;;;17.49;77.06
38852;BME280;24605;50.092;9.182;2023-07-20T00:52:13;156506.75;;;17.61;76.81
38852;BME280;24605;50.092;9.182;2023-07-20T00:54:41;156525.09;;;17.68;75.98
38852;BME280;24605;50.092;9.182;2023-07-20T00:57:07;156538.16;;;17.74;75.99
38852;BME280;24605;50.092;9.182;2023-07-20T00:59:36;156534.25;;;17.72;76.04
38852;BME280;24605;50.092;9.182;2023-07-20T01:02:03;156527.72;;;17.69;76.06
38852;BME280;24605;50.092;9.182;2023-07-20T01:04:30;156548.66;;;17.78;75.69
38852;BME280;24605;50.092;9.182;2023-07-20T01:07:01;156540.78;;;17.75;75.63
38852;BME280;24605;50.092;9.182;2023-07-20T01:09:35;156522.47;;;17.67;76.28
38852;BME280;24605;50.092;9.182;2023-07-20T01:12:08;156547.34;;;17.77;75.85
38852;BME280;24605;50.092;9.182;2023-07-20T01:14:37;156547.34;;;17.77;75.69
38852;BME280;24605;50.092;9.182;2023-07-20T01:17:04;156517.22;;;17.65;76.06
38852;BME280;24605;50.092;9.182;2023-07-20T01:19:30;156466.16;;;17.45;77.00
38852;BME280;24605;50.092;9.182;2023-07-20T01:22:00;156471.41;;;17.47;76.69
38852;BME280;24605;50.092;9.182;2023-07-20T01:24:57;156451.75;;;17.39;77.15
38852;BME280;24605;50.092;9.182;2023-07-20T01:30:56;156445.19;;;17.37;77.62
38852;BME280;24605;50.092;9.182;2023-07-20T01:33:28;156428.16;;;17.30;77.65
38852;BME280;24605;50.092;9.182;2023-07-20T01:35:58;156456.97;;;17.42;76.64
38852;BME280;24605;50.092;9.182;2023-07-20T01:38:26;156477.94;;;17.50;75.90
38852;BME280;24605;50.092;9.182;2023-07-20T01:40:53;156483.19;;;17.52;76.03
38852;BME280;24605;50.092;9.182;2023-07-20T01:43:19;156504.13;;;17.60;75.38
38852;BME280;24605;50.092;9.182;2023-07-20T01:45:46;156506.75;;;17.61;75.56
38852;BME280;24605;50.092;9.182;2023-07-20T01:48:12;156519.84;;;17.66;75.12
38852;BME280;24605;50.092;9.182;2023-07-20T01:50:40;156497.59;;;17.58;75.54
38852;BME280;24605;50.092;9.182;2023-07-20T01:53:06;156521.19;;;17.67;75.10
38852;BME280;24605;50.092;9.182;2023-07-20T01:55:33;156511.97;;;17.63;74.80
38852;BME280;24605;50.092;9.182;2023-07-20T01:57:59;156523.75;;;17.68;74.96
38852;BME280;24605;50.092;9.182;2023-07-20T02:00:27;156546.03;;;17.77;75.15
38852;BME280;24605;50.092;9.182;2023-07-20T02:02:53;156517.22;;;17.65;75.39
38852;BME280;24605;50.092;9.182;2023-07-20T02:05:20;156514.59;;;17.64;75.24
38852;BME280;24605;50.092;9.182;2023-07-20T02:07:47;156518.56;;;17.66;75.48
38852;BME280;24605;50.092;9.182;2023-07-20T02:10:14;156515.94;;;17.65;75.52
38852;BME280;24605;50.092;9.182;2023-07-20T02:12:41;156487.09;;;17.53;76.08
38852;BME280;24605;50.092;9.182;2023-07-20T02:15:08;156510.69;;;17.63;75.57
38852;BME280;24605;50.092;9.182;2023-07-20T02:17:35;156483.19;;;17.52;75.67
38852;BME280;24605;50.092;9.182;2023-07-20T02:20:02;156492.34;;;17.56;75.84
38852;BME280;24605;50.092;9.182;2023-07-20T02:22:29;156459.63;;;17.43;76.20
38852;BME280;24605;50.092;9.182;2023-07-20T02:24:57;156453.06;;;17.40;76.46
38852;BME280;24605;50.092;9.182;2023-07-20T02:27:23;156391.53;;;17.16;76.97
38852;BME280;24605;50.092;9.182;2023-07-20T02:29:49;156333.88;;;16.93;77.25
38852;BME280;24605;50.092;9.182;2023-07-20T02:32:16;156395.44;;;17.17;77.77
38852;BME280;24605;50.092;9.182;2023-07-20T02:34:43;156348.28;;;16.99;78.76
38852;BME280;24605;50.092;9.182;2023-07-20T02:37:09;156366.59;;;17.06;79.21
38852;BME280;24605;50.092;9.182;2023-07-20T02:39:38;156344.38;;;16.97;79.64
38852;BME280;24605;50.092;9.182;2023-07-20T02:42:06;156307.69;;;16.83;80.22
38852;BME280;24605;50.092;9.182;2023-07-20T02:44:32;156297.19;;;16.79;81.42
38852;BME280;24605;50.092;9.182;2023-07-20T02:46:59;156240.91;;;16.56;82.05
38852;BME280;24605;50.092;9.182;2023-07-20T02:49:26;156250.06;;;16.60;82.63
38852;BME280;24605;50.092;9.182;2023-07-20T02:51:52;156212.09;;;16.45;83.48
38852;BME280;24605;50.092;9.182;2023-07-20T02:54:19;156205.56;;;16.42;83.95
38852;BME280;24605;50.092;9.182;2023-07-20T02:56:46;156185.97;;;16.35;84.61
38852;BME280;24605;50.092;9.182;2023-07-20T02:59:13;156150.63;;;16.21;85.74
38852;BME280;24605;50.092;9.182;2023-07-20T03:01:40;156148.00;;;16.20;85.56
38852;BME280;24605;50.092;9.182;2023-07-20T03:04:07;156174.19;;;16.30;85.36
38852;BME280;24605;50.092;9.182;2023-07-20T03:06:34;156208.19;;;16.43;84.53
38852;BME280;24605;50.092;9.182;2023-07-20T03:09:01;156191.16;;;16.37;85.37
38852;BME280;24605;50.092;9.182;2023-07-20T03:11:29;156167.59;;;16.27;85.60
38852;BME280;24605;50.092;9.182;2023-07-20T03:13:55;156166.31;;;16.27;85.55
38852;BME280;24605;50.092;9.182;2023-07-20T03:16:23;156148.00;;;16.20;85.97
38852;BME280;24605;50.092;9.182;2023-07-20T03:18:50;156128.38;;;16.12;86.00
38852;BME280;24605;50.092;9.182;2023-07-20T03:21:17;156107.44;;;16.04;86.43
38852;BME280;24605;50.092;9.182;2023-07-20T03:23:43;156129.72;;;16.12;86.63
38852;BME280;24605;50.092;9.182;2023-07-20T03:26:10;156082.59;;;15.94;87.56
38852;BME280;24605;50.092;9.182;2023-07-20T03:28:36;156079.97;;;15.93;87.71
38852;BME280;24605;50.092;9.182;2023-07-20T03:31:04;156117.94;;;16.08;86.98
38852;BME280;24605;50.092;9.182;2023-07-20T03:33:32;156045.88;;;15.79;87.17
38852;BME280;24605;50.092;9.182;2023-07-20T03:35:59;156013.19;;;15.66;88.78
38852;BME280;24605;50.092;9.182;2023-07-20T03:38:27;156002.75;;;15.62;89.28
38852;BME280;24605;50.092;9.182;2023-07-20T03:40:55;156002.75;;;15.62;89.61
38852;BME280;24605;50.092;9.182;2023-07-20T03:43:23;156024.97;;;15.71;89.51
38852;BME280;24605;50.092;9.182;2023-07-20T03:45:50;155937.34;;;15.37;90.83
38852;BME280;24605;50.092;9.182;2023-07-20T03:48:18;155930.78;;;15.34;92.23
38852;BME280;24605;50.092;9.182;2023-07-20T03:50:47;155933.41;;;15.35;92.61
38852;BME280;24605;50.092;9.182;2023-07-20T03:53:15;155930.78;;;15.34;92.53
38852;BME280;24605;50.092;9.182;2023-07-20T03:55:41;155949.13;;;15.41;92.40
38852;BME280;24605;50.092;9.182;2023-07-20T03:58:08;156008.00;;;15.64;90.71
38852;BME280;24605;50.092;9.182;2023-07-20T04:00:34;156024.97;;;15.71;90.58
38852;BME280;24605;50.092;9.182;2023-07-20T04:03:01;156049.84;;;15.81;89.87
38852;BME280;24605;50.092;9.182;2023-07-20T04:05:27;156066.88;;;15.88;89.68
38852;BME280;24605;50.092;9.182;2023-07-20T04:07:55;156127.09;;;16.11;88.47
38852;BME280;24605;50.092;9.182;2023-07-20T04:10:22;156161.06;;;16.25;87.87
38852;BME280;24605;50.092;9.182;2023-07-20T04:12:48;156205.56;;;16.42;87.22
38852;BME280;24605;50.092;9.182;2023-07-20T04:15:15;156227.84;;;16.51;87.19
38852;BME280;24605;50.092;9.182;2023-07-20T04:17:41;156264.47;;;16.66;85.32
38852;BME280;24605;50.092;9.182;2023-07-20T04:20:08;156291.94;;;16.76;84.69
38852;BME280;24605;50.092;9.182;2023-07-20T04:22:35;156284.13;;;16.73;84.74
38852;BME280;24605;50.092;9.182;2023-07-20T04:25:04;156263.19;;;16.65;84.68
38852;BME280;24605;50.092;9.182;2023-07-20T04:27:31;156312.91;;;16.85;83.55
38852;BME280;24605;50.092;9.182;2023-07-20T04:29:58;156290.66;;;16.76;84.67
38852;BME280;24605;50.092;9.182;2023-07-20T04:32:25;156328.63;;;16.91;83.68
38852;BME280;24605;50.092;9.182;2023-07-20T04:34:51;156331.25;;;16.92;83.08
38852;BME280;24605;50.092;9.182;2023-07-20T04:37:18;156269.72;;;16.68;83.98
38852;BME280;24605;50.092;9.182;2023-07-20T04:39:45;156298.53;;;16.79;84.11
38852;BME280;24605;50.092;9.182;2023-07-20T04:42:13;156295.91;;;16.78;83.75
38852;BME280;24605;50.092;9.182;2023-07-20T04:44:40;156316.84;;;16.86;83.61
38852;BME280;24605;50.092;9.182;2023-07-20T04:47:07;156278.88;;;16.71;84.34
38852;BME280;24605;50.092;9.182;2023-07-20T04:49:33;156271.00;;;16.68;84.47
38852;BME280;24605;50.092;9.182;2023-07-20T04:52:00;156255.31;;;16.62;84.38
38852;BME280;24605;50.092;9.182;2023-07-20T04:54:28;156255.31;;;16.62;84.91
38852;BME280;24605;50.092;9.182;2023-07-20T04:56:54;156256.59;;;16.63;85.03
38852;BME280;24605;50.092;9.182;2023-07-20T04:59:22;156250.06;;;16.60;84.65
38852;BME280;24605;50.092;9.182;2023-07-20T05:01:48;156333.88;;;16.93;83.78
38852;BME280;24605;50.092;9.182;2023-07-20T05:04:15;156301.09;;;16.80;84.29
38852;BME280;24605;50.092;9.182;2023-07-20T05:06:41;156358.78;;;17.03;84.07
38852;BME280;24605;50.092;9.182;2023-07-20T05:09:08;156373.19;;;17.09;83.67
38852;BME280;24605;50.092;9.182;2023-07-20T05:11:35;156428.16;;;17.30;83.44
38852;BME280;24605;50.092;9.182;2023-07-20T05:14:01;156455.66;;;17.41;82.83
38852;BME280;24605;50.092;9.182;2023-07-20T05:16:29;156455.66;;;17.41;83.29
38852;BME280;24605;50.092;9.182;2023-07-20T05:18:55;156459.63;;;17.43;83.78
38852;BME280;24605;50.092;9.182;2023-07-20T05:21:23;156483.19;;;17.52;83.25
38852;BME280;24605;50.092;9.182;2023-07-20T05:23:49;156517.22;;;17.65;81.30
38852;BME280;24605;50.092;9.182;2023-07-20T05:26:16;156466.16;;;17.45;82.15
38852;BME280;24605;50.092;9.182;2023-07-20T05:28:42;156494.97;;;17.57;81.29
38852;BME280;24605;50.092;9.182;2023-07-20T05:31:08;156525.09;;;17.68;81.02
38852;BME280;24605;50.092;9.182;2023-07-20T05:33:36;156531.63;;;17.71;81.08
38852;BME280;24605;50.092;9.182;2023-07-20T05:36:03;156578.78;;;17.90;79.61
38852;BME280;24605;50.092;9.182;2023-07-20T05:38:30;156591.88;;;17.95;78.13
38852;BME280;24605;50.092;9.182;2023-07-20T05:40:59;156561.75;;;17.83;79.04
38852;BME280;24605;50.092;9.182;2023-07-20T05:43:27;156652.22;;;18.19;77.35
38852;BME280;24605;50.092;9.182;2023-07-20T05:45:53;156633.88;;;18.11;77.86
38852;BME280;24605;50.092;9.182;2023-07-20T05:48:19;156611.59;;;18.03;78.66
38852;BME280;24605;50.092;9.182;2023-07-20T05:50:47;156679.72;;;18.29;78.16
38852;BME280;24605;50.092;9.182;2023-07-20T05:53:14;156709.84;;;18.41;76.63
38852;BME280;24605;50.092;9.182;2023-07-20T05:55:40;156741.31;;;18.54;77.08
38852;BME280;24605;50.092;9.182;2023-07-20T05:58:07;156770.13;;;18.65;75.73
38852;BME280;24605;50.092;9.182;2023-07-20T06:00:34;156704.59;;;18.39;76.79
38852;BME280;24605;50.092;9.182;2023-07-20T06:03:00;156593.22;;;17.95;75.50
38852;BME280;24605;50.092;9.182;2023-07-20T06:05:26;156580.06;;;17.90;76.64
38852;BME280;24605;50.092;9.182;2023-07-20T06:07:54;156585.34;;;17.92;75.97
38852;BME280;24605;50.092;9.182;2023-07-20T06:10:22;156522.47;;;17.67;76.06
38852;BME280;24605;50.092;9.182;2023-07-20T06:12:49;156470.06;;;17.47;77.89
38852;BME280;24605;50.092;9.182;2023-07-20T06:15:25;156492.34;;;17.56;76.13
38852;BME280;24605;50.092;9.182;2023-07-20T06:17:52;156504.13;;;17.60;77.03
38852;BME280;24605;50.092;9.182;2023-07-20T06:20:18;156555.22;;;17.80;75.08
38852;BME280;24605;50.092;9.182;2023-07-20T06:22:44;156578.78;;;17.90;74.76
38852;BME280;24605;50.092;9.182;2023-07-20T06:25:13;156619.47;;;18.06;74.50
38852;BME280;24605;50.092;9.182;2023-07-20T06:27:39;156616.84;;;18.05;73.73
38852;BME280;24605;50.092;9.182;2023-07-20T06:30:07;156593.22;;;17.95;73.73
38852;BME280;24605;50.092;9.182;2023-07-20T06:32:33;156586.66;;;17.93;74.36
38852;BME280;24605;50.092;9.182;2023-07-20T06:34:59;156581.41;;;17.91;75.27
38852;BME280;24605;50.092;9.182;2023-07-20T06:37:26;156644.34;;;18.15;73.80
38852;BME280;24605;50.092;9.182;2023-07-20T06:39:52;156603.72;;;17.99;74.60
38852;BME280;24605;50.092;9.182;2023-07-20T06:42:20;156614.22;;;18.04;74.71
38852;BME280;24605;50.092;9.182;2023-07-20T06:44:47;156605.03;;;18.00;74.18
38852;BME280;24605;50.092;9.182;2023-07-20T06:47:13;156553.91;;;17.80;75.48
38852;BME280;24605;50.092;9.182;2023-07-20T06:49:40;156616.84;;;18.05;74.45
38852;BME280;24605;50.092;9.182;2023-07-20T06:52:07;156607.69;;;18.01;74.60
38852;BME280;24605;50.092;9.182;2023-07-20T06:54:33;156637.78;;;18.13;74.22
38852;BME280;24605;50.092;9.182;2023-07-20T06:57:00;156635.19;;;18.12;73.95
38852;BME280;24605;50.092;9.182;2023-07-20T06:59:28;156725.56;;;18.47;72.67
38852;BME280;24605;50.092;9.182;2023-07-20T07:01:54;156715.09;;;18.43;72.22
38852;BME280;24605;50.092;9.182;2023-07-20T07:04:21;156629.94;;;18.10;73.55
38852;BME280;24605;50.092;9.182;2023-07-20T07:06:47;156670.56;;;18.26;73.30
38852;BME280;24605;50.092;9.182;2023-07-20T07:09:14;156675.81;;;18.28;72.33
38852;BME280;24605;50.092;9.182;2023-07-20T07:11:41;156645.63;;;18.16;73.04
38852;BME280;24605;50.092;9.182;2023-07-20T07:14:07;156612.88;;;18.03;73.73
38852;BME280;24605;50.092;9.182;2023-07-20T07:16:35;156666.63;;;18.24;73.10
38852;BME280;24605;50.092;9.182;2023-07-20T07:19:01;156729.53;;;18.49;72.62
38852;BME280;24605;50.092;9.182;2023-07-20T07:21:28;156705.94;;;18.40;71.56
38852;BME280;24605;50.092;9.182;2023-07-20T07:23:55;156785.88;;;18.71;71.58
38852;BME280;24605;50.092;9.182;2023-07-20T07:26:22;156847.50;;;18.95;70.55
38852;BME280;24605;50.092;9.182;2023-07-20T07:28:49;156855.38;;;18.99;70.78
38852;BME280;24605;50.092;9.182;2023-07-20T07:31:15;156905.22;;;19.18;69.57
38852;BME280;24605;50.092;9.182;2023-07-20T07:33:43;156881.59;;;19.09;69.77
38852;BME280;24605;50.092;9.182;2023-07-20T07:36:10;156863.25;;;19.02;69.83
38852;BME280;24605;50.092;9.182;2023-07-20T07:38:36;156852.75;;;18.98;69.87
38852;BME280;24605;50.092;9.182;2023-07-20T07:41:03;156834.34;;;18.90;70.55
38852;BME280;24605;50.092;9.182;2023-07-20T07:43:30;156751.78;;;18.58;71.77
38852;BME280;24605;50.092;9.182;2023-07-20T07:45:56;156780.63;;;18.69;72.19
38852;BME280;24605;50.092;9.182;2023-07-20T07:48:23;156747.88;;;18.56;72.94
38852;BME280;24605;50.092;9.182;2023-07-20T07:50:51;156649.59;;;18.17;73.88
38852;BME280;24605;50.092;9.182;2023-07-20T07:53:18;156720.34;;;18.45;73.39
38852;BME280;24605;50.092;9.182;2023-07-20T07:55:45;156667.94;;;18.25;74.63
38852;BME280;24605;50.092;9.182;2023-07-20T07:58:13;156624.66;;;18.08;74.44
38852;BME280;24605;50.092;9.182;2023-07-20T08:00:40;156632.53;;;18.11;75.39
38852;BME280;24605;50.092;9.182;2023-07-20T08:03:06;156724.28;;;18.47;74.46
38852;BME280;24605;50.092;9.182;2023-07-20T08:05:33;156767.53;;;18.64;73.57
38852;BME280;24605;50.092;9.182;2023-07-20T08:08:01;156831.72;;;18.89;72.02
38852;BME280;24605;50.092;9.182;2023-07-20T08:10:28;156915.66;;;19.22;70.44
38852;BME280;24605;50.092;9.182;2023-07-20T08:12:55;156949.78;;;19.36;69.96
38852;BME280;24605;50.092;9.182;2023-07-20T08:15:22;157033.69;;;19.69;67.70
38852;BME280;24605;50.092;9.182;2023-07-20T08:17:48;157062.56;;;19.80;65.54
38852;BME280;24605;50.092;9.182;2023-07-20T08:20:17;157082.25;;;19.88;66.83
38852;BME280;24605;50.092;9.182;2023-07-20T08:22:44;157070.44;;;19.83;66.64
38852;BME280;24605;50.092;9.182;2023-07-20T08:25:11;157099.31;;;19.95;65.41
38852;BME280;24605;50.092;9.182;2023-07-20T08:27:38;157083.59;;;19.88;66.05
38852;BME280;24605;50.092;9.182;2023-07-20T08:30:07;157119.00;;;20.02;66.17
38852;BME280;24605;50.092;9.182;2023-07-20T08:32:34;157160.97;;;20.19;65.24
38852;BME280;24605;50.092;9.182;2023-07-20T08:35:00;157419.53;;;21.21;60.84
38852;BME280;24605;50.092;9.182;2023-07-20T08:37:27;157469.44;;;21.40;61.49
38852;BME280;24605;50.092;9.182;2023-07-20T08:39:53;157309.28;;;20.77;59.59
38852;BME280;24605;50.092;9.182;2023-07-20T08:42:22;157248.91;;;20.54;60.05
38852;BME280;24605;50.092;9.182;2023-07-20T08:44:49;157343.41;;;20.91;58.53
38852;BME280;24605;50.092;9.182;2023-07-20T08:47:20;157269.91;;;20.62;59.66
38852;BME280;24605;50.092;9.182;2023-07-20T08:49:48;157163.59;;;20.20;61.81
38852;BME280;24605;50.092;9.182;2023-07-20T08:52:15;157044.22;;;19.73;64.06
38852;BME280;24605;50.092;9.182;2023-07-20T08:54:41;156965.50;;;19.42;64.54
38852;BME280;24605;50.092;9.182;2023-07-20T08:57:08;157021.88;;;19.64;64.84
38852;BME280;24605;50.092;9.182;2023-07-20T08:59:39;157021.88;;;19.64;65.37
38852;BME280;24605;50.092;9.182;2023-07-20T09:02:08;156981.22;;;19.48;64.34
38852;BME280;24605;50.092;9.182;2023-07-20T09:04:37;157031.06;;;19.68;63.68
38852;BME280;24605;50.092;9.182;2023-07-20T09:07:04;157073.03;;;19.84;63.61
38852;BME280;24605;50.092;9.182;2023-07-20T09:09:31;157059.94;;;19.79;63.50
38852;BME280;24605;50.092;9.182;2023-07-20T09:11:57;157304.03;;;20.75;60.12
38852;BME280;24605;50.092;9.182;2023-07-20T09:14:24;157344.72;;;20.91;57.06
38852;BME280;24605;50.092;9.182;2023-07-20T09:16:53;157336.84;;;20.88;56.64
38852;BME280;24605;50.092;9.182;2023-07-20T09:19:21;157347.38;;;20.92;56.55
38852;BME280;24605;50.092;9.182;2023-07-20T09:21:48;157325.03;;;20.84;55.78
38852;BME280;24605;50.092;9.182;2023-07-20T09:24:17;157272.47;;;20.63;55.63
38852;BME280;24605;50.092;9.182;2023-07-20T09:26:45;157272.47;;;20.63;54.70
38852;BME280;24605;50.092;9.182;2023-07-20T09:29:13;157193.78;;;20.32;55.28
38852;BME280;24605;50.092;9.182;2023-07-20T09:31:40;157222.66;;;20.43;56.65
38852;BME280;24605;50.092;9.182;2023-07-20T09:34:08;157206.88;;;20.37;57.24
38852;BME280;24605;50.092;9.182;2023-07-20T09:36:35;157227.88;;;20.45;55.71
38852;BME280;24605;50.092;9.182;2023-07-20T09:39:03;157243.66;;;20.51;56.40
38852;BME280;24605;50.092;9.182;2023-07-20T09:41:30;157243.66;;;20.51;56.64
38852;BME280;24605;50.092;9.182;2023-07-20T09:44:05;157348.66;;;20.93;55.34
38852;BME280;24605;50.092;9.182;2023-07-20T09:46:41;157385.38;;;21.07;54.08
38852;BME280;24605;50.092;9.182;2023-07-20T09:49:09;157382.81;;;21.06;52.90
38852;BME280;24605;50.092;9.182;2023-07-20T09:51:36;157457.63;;;21.36;52.35
38852;BME280;24605;50.092;9.182;2023-07-20T09:54:04;157435.28;;;21.27;53.81
38852;BME280;24605;50.092;9.182;2023-07-20T09:56:31;157373.56;;;21.03;54.33
38852;BME280;24605;50.092;9.182;2023-07-20T09:58:59;157237.09;;;20.49;55.20
38852;BME280;24605;50.092;9.182;2023-07-20T10:01:26;157334.22;;;20.87;55.04
38852;BME280;24605;50.092;9.182;2023-07-20T10:03:54;157364.38;;;20.99;54.23
38852;BME280;24605;50.092;9.182;2023-07-20T10:06:24;157262.00;;;20.59;54.73
38852;BME280;24605;50.092;9.182;2023-07-20T10:08:53;157225.28;;;20.44;56.15
38852;BME280;24605;50.092;9.182;2023-07-20T10:11:21;157279.06;;;20.65;56.64
38852;BME280;24605;50.092;9.182;2023-07-20T10:13:51;157377.53;;;21.04;54.71
38852;BME280;24605;50.092;9.182;2023-07-20T10:16:28;157386.72;;;21.08;55.12
38852;BME280;24605;50.092;9.182;2023-07-20T10:19:02;157458.91;;;21.36;53.38
38852;BME280;24605;50.092;9.182;2023-07-20T10:21:32;157571.88;;;21.81;51.48
38852;BME280;24605;50.092;9.182;2023-07-20T10:24:01;157524.59;;;21.62;51.68
38852;BME280;24605;50.092;9.182;2023-07-20T10:26:28;157523.31;;;21.62;52.06
38852;BME280;24605;50.092;9.182;2023-07-20T10:28:55;157483.88;;;21.46;52.47
38852;BME280;24605;50.092;9.182;2023-07-20T10:31:23;157574.50;;;21.82;50.01
38852;BME280;24605;50.092;9.182;2023-07-20T10:33:50;157573.22;;;21.81;49.98
38852;BME280;24605;50.092;9.182;2023-07-20T10:36:24;157590.25;;;21.88;49.40
38852;BME280;24605;50.092;9.182;2023-07-20T10:38:54;157426.09;;;21.23;49.62
38852;BME280;24605;50.092;9.182;2023-07-20T10:41:23;157439.25;;;21.28;50.78
38852;BME280;24605;50.092;9.182;2023-07-20T10:43:58;157434.00;;;21.26;50.97
38852;BME280;24605;50.092;9.182;2023-07-20T10:46:41;157493.06;;;21.50;49.88
38852;BME280;24605;50.092;9.182;2023-07-20T10:49:10;157427.44;;;21.24;49.01
38852;BME280;24605;50.092;9.182;2023-07-20T10:51:40;157485.19;;;21.47;49.33
38852;BME280;24605;50.092;9.182;2023-07-20T10:54:10;157466.81;;;21.39;50.25
38852;BME280;24605;50.092;9.182;2023-07-20T10:56:56;157527.22;;;21.63;49.41
38852;BME280;24605;50.092;9.182;2023-07-20T10:59:36;157666.44;;;22.18;48.81
38852;BME280;24605;50.092;9.182;2023-07-20T11:02:06;157708.47;;;22.34;46.89
38852;BME280;24605;50.092;9.182;2023-07-20T11:04:40;157858.25;;;22.93;44.73
38852;BME280;24605;50.092;9.182;2023-07-20T11:07:07;157795.22;;;22.68;44.53
38852;BME280;24605;50.092;9.182;2023-07-20T11:09:36;157937.19;;;23.24;44.00
38852;BME280;24605;50.092;9.182;2023-07-20T11:12:10;157821.50;;;22.79;44.96
38852;BME280;24605;50.092;9.182;2023-07-20T11:14:39;157598.16;;;21.91;48.46
38852;BME280;24605;50.092;9.182;2023-07-20T11:17:11;157711.09;;;22.35;48.39
38852;BME280;24605;50.092;9.182;2023-07-20T11:19:39;157713.72;;;22.36;46.80
38852;BME280;24605;50.092;9.182;2023-07-20T11:22:06;157816.22;;;22.77;46.58
38852;BME280;24605;50.092;9.182;2023-07-20T11:24:38;157822.78;;;22.79;46.46
38852;BME280;24605;50.092;9.182;2023-07-20T11:27:05;157879.28;;;23.01;45.90
38852;BME280;24605;50.092;9.182;2023-07-20T11:29:32;157863.53;;;22.95;45.57
38852;BME280;24605;50.092;9.182;2023-07-20T11:31:58;157887.19;;;23.05;43.98
38852;BME280;24605;50.092;9.182;2023-07-20T11:34:25;157905.56;;;23.12;44.41
38852;BME280;24605;50.092;9.182;2023-07-20T11:36:52;157988.44;;;23.44;42.93
38852;BME280;24605;50.092;9.182;2023-07-20T11:39:21;158026.56;;;23.59;42.13
38852;BME280;24605;50.092;9.182;2023-07-20T11:41:52;157938.47;;;23.25;41.54
38852;BME280;24605;50.092;9.182;2023-07-20T11:44:20;157967.41;;;23.36;42.11
38852;BME280;24605;50.092;9.182;2023-07-20T11:46:59;157902.94;;;23.11;43.36
38852;BME280;24605;50.092;9.182;2023-07-20T11:49:26;157876.69;;;23.00;43.51
38852;BME280;24605;50.092;9.182;2023-07-20T11:51:53;157899.00;;;23.09;43.12
38852;BME280;24605;50.092;9.182;2023-07-20T11:54:20;157987.13;;;23.44;43.03
38852;BME280;24605;50.092;9.182;2023-07-20T11:56:46;157997.63;;;23.48;42.60
38852;BME280;24605;50.092;9.182;2023-07-20T11:59:14;158021.28;;;23.57;42.23
38852;BME280;24605;50.092;9.182;2023-07-20T12:01:41;158029.19;;;23.60;42.21
38852;BME280;24605;50.092;9.182;2023-07-20T12:04:07;158023.94;;;23.58;42.16
38852;BME280;24605;50.092;9.182;2023-07-20T12:06:34;157703.19;;;22.32;45.11
38852;BME280;24605;50.092;9.182;2023-07-20T12:09:01;157888.47;;;23.05;44.13
38852;BME280;24605;50.092;9.182;2023-07-20T12:11:31;157950.31;;;23.29;44.19
38852;BME280;24605;50.092;9.182;2023-07-20T12:13:58;158104.13;;;23.90;41.02
38852;BME280;24605;50.092;9.182;2023-07-20T12:16:28;158081.75;;;23.81;40.98
38852;BME280;24605;50.092;9.182;2023-07-20T12:19:00;158084.38;;;23.82;41.14
38852;BME280;24605;50.092;9.182;2023-07-20T12:21:27;158289.56;;;24.63;38.15
38852;BME280;24605;50.092;9.182;2023-07-20T12:23:56;158193.56;;;24.25;37.41
38852;BME280;24605;50.092;9.182;2023-07-20T12:26:23;158087.00;;;23.83;38.21
38852;BME280;24605;50.092;9.182;2023-07-20T12:28:50;157938.47;;;23.25;39.64
38852;BME280;24605;50.092;9.182;2023-07-20T12:31:17;157975.31;;;23.39;40.13
38852;BME280;24605;50.092;9.182;2023-07-20T12:33:45;158004.19;;;23.51;41.11
38852;BME280;24605;50.092;9.182;2023-07-20T12:36:11;158023.94;;;23.58;38.86
38852;BME280;24605;50.092;9.182;2023-07-20T12:38:38;158168.63;;;24.15;38.14
38852;BME280;24605;50.092;9.182;2023-07-20T12:41:04;158271.16;;;24.55;35.91
38852;BME280;24605;50.092;9.182;2023-07-20T12:43:31;158259.31;;;24.51;36.70
38852;BME280;24605;50.092;9.182;2023-07-20T12:45:58;158067.31;;;23.75;38.16
38852;BME280;24605;50.092;9.182;2023-07-20T12:48:24;158088.34;;;23.84;38.07
38852;BME280;24605;50.092;9.182;2023-07-20T12:50:52;158027.84;;;23.60;39.81
38852;BME280;24605;50.092;9.182;2023-07-20T12:53:19;158146.22;;;24.06;38.28
38852;BME280;24605;50.092;9.182;2023-07-20T12:55:45;158192.22;;;24.24;39.21